Time;durP1;ratioP1;P1;durP2;ratioP2;P2;SDS_P1;SDS_P2;PMS_P1;PMS_P2;Temp;Humidity;BMP_temperature;BMP_pressure;BME280_temperature;BME280_humidity;BME280_pressure;Samples;Min_cycle;Max_cycle;Signal;HPM_P1;HPM_P2
2022/08/26 00:00:41;;;;;;;9.55;7.22;;;21.20;99.90;;;;;;5095040;28;20205;-67
2022/08/26 00:03:07;;;;;;;9.93;7.30;;;21.20;99.90;;;;;;5096345;28;20193;-68
2022/08/26 00:05:34;;;;;;;14.55;7.07;;;21.20;99.90;;;;;;5096343;28;20176;-68
2022/08/26 00:08:00;;;;;;;11.07;7.75;;;21.20;99.90;;;;;;5112222;28;20180;-68
2022/08/26 00:10:26;;;;;;;9.85;7.50;;;21.20;99.90;;;;;;5115253;28;20524;-67
2022/08/26 00:12:52;;;;;;;11.45;7.80;;;21.30;99.90;;;;;;5116681;28;20188;-67
2022/08/26 00:15:20;;;;;;;9.50;7.35;;;21.30;99.90;;;;;;5116797;28;20531;-67
2022/08/26 00:17:46;;;;;;;11.77;8.07;;;21.30;99.90;;;;;;5116416;28;20171;-67
2022/08/26 00:20:15;;;;;;;11.85;7.97;;;21.30;99.90;;;;;;5116363;28;20531;-68
2022/08/26 00:22:40;;;;;;;11.25;7.95;;;21.20;99.90;;;;;;5116374;28;20718;-68
2022/08/26 00:25:07;;;;;;;11.50;7.53;;;21.10;99.90;;;;;;5115612;28;20208;-68
2022/08/26 00:27:34;;;;;;;11.85;7.40;;;21.00;99.90;;;;;;5116787;28;20173;-68
2022/08/26 00:30:01;;;;;;;9.35;7.75;;;20.90;99.90;;;;;;5119117;28;20260;-67
2022/08/26 00:32:27;;;;;;;13.43;7.90;;;20.80;99.90;;;;;;5116457;28;20163;-67
2022/08/26 00:34:53;;;;;;;11.05;8.20;;;20.70;99.90;;;;;;5116206;28;20169;-67
2022/08/26 00:37:19;;;;;;;10.02;7.55;;;20.70;99.90;;;;;;5115942;28;20187;-67
2022/08/26 00:39:44;;;;;;;10.40;8.10;;;20.60;99.90;;;;;;5114827;28;20686;-67
2022/08/26 00:42:10;;;;;;;11.15;7.70;;;20.60;99.90;;;;;;5115883;28;20625;-67
2022/08/26 00:44:36;;;;;;;12.63;8.25;;;20.50;99.90;;;;;;5115809;28;20203;-67
2022/08/26 00:47:08;;;;;;;11.55;8.05;;;20.50;99.90;;;;;;5115844;28;20200;-67
2022/08/26 00:49:41;;;;;;;13.75;7.57;;;20.40;99.90;;;;;;5116014;28;20184;-67
2022/08/26 00:52:13;;;;;;;11.15;7.93;;;20.40;99.90;;;;;;5115481;28;20625;-67
2022/08/26 00:54:48;;;;;;;11.23;8.15;;;20.50;99.90;;;;;;5115700;28;20192;-67
2022/08/26 00:57:16;;;;;;;9.95;7.45;;;20.50;99.90;;;;;;5114519;28;20577;-67
2022/08/26 00:59:46;;;;;;;11.88;8.55;;;20.50;99.90;;;;;;5115744;28;20177;-67
2022/08/26 01:02:12;;;;;;;9.38;7.97;;;20.50;99.90;;;;;;5115401;28;20337;-67
2022/08/26 01:04:40;;;;;;;13.82;8.93;;;20.50;99.90;;;;;;5114156;28;20690;-67
2022/08/26 01:07:06;;;;;;;12.63;8.43;;;20.40;99.90;;;;;;5115196;28;20633;-67
2022/08/26 01:09:32;;;;;;;11.95;8.15;;;20.40;99.90;;;;;;5115724;28;20178;-67
2022/08/26 01:12:01;;;;;;;12.23;8.02;;;20.50;99.90;;;;;;5114187;28;20267;-69
2022/08/26 01:14:31;;;;;;;10.32;8.43;;;20.40;99.90;;;;;;5115729;28;20195;-69
2022/08/26 01:16:57;;;;;;;10.60;8.05;;;20.40;99.90;;;;;;5115533;28;20160;-69
2022/08/26 01:20:00;;;;;;;11.60;7.75;;;20.40;99.90;;;;;;5113776;28;20192;-69
2022/08/26 01:22:50;;;;;;;11.25;7.60;;;20.40;99.90;;;;;;5092741;28;20580;-69
2022/08/26 01:25:18;;;;;;;11.60;8.77;;;20.40;99.90;;;;;;5113969;28;20184;-69
2022/08/26 01:27:45;;;;;;;11.85;7.97;;;20.30;99.90;;;;;;5115465;28;20200;-69
2022/08/26 01:30:12;;;;;;;10.15;7.50;;;20.20;99.90;;;;;;5114915;28;20249;-69
2022/08/26 01:32:38;;;;;;;13.00;8.57;;;20.10;99.90;;;;;;5113607;28;20615;-69
2022/08/26 01:35:05;;;;;;;12.05;8.10;;;20.10;99.90;;;;;;5115342;28;20176;-69
2022/08/26 01:37:36;;;;;;;12.45;8.73;;;20.00;99.90;;;;;;5113681;28;20208;-69
2022/08/26 01:40:04;;;;;;;10.93;8.45;;;19.90;99.90;;;;;;5115025;28;20176;-67
2022/08/26 01:42:30;;;;;;;12.52;8.55;;;19.80;99.90;;;;;;5114946;28;20728;-67
2022/08/26 01:45:17;;;;;;;12.23;8.45;;;19.90;99.90;;;;;;5114824;28;20252;-67
2022/08/26 01:47:43;;;;;;;15.55;8.93;;;19.80;99.90;;;;;;5115393;28;20164;-67
2022/08/26 01:50:17;;;;;;;11.88;8.65;;;19.60;99.90;;;;;;5114924;28;20225;-67
2022/08/26 01:52:46;;;;;;;11.82;8.80;;;19.60;99.90;;;;;;5113239;28;20563;-67
2022/08/26 01:55:14;;;;;;;12.73;8.95;;;19.60;99.90;;;;;;5114892;28;20632;-69
2022/08/26 01:57:41;;;;;;;11.75;8.75;;;19.60;99.90;;;;;;5116356;28;20186;-69
2022/08/26 02:00:13;;;;;;;12.38;9.00;;;19.60;99.90;;;;;;5115931;28;20161;-69
2022/08/26 02:02:45;;;;;;;12.52;8.77;;;19.60;99.90;;;;;;5114576;28;20206;-69
2022/08/26 02:05:17;;;;;;;15.25;9.57;;;19.50;99.90;;;;;;5114869;27;20235;-69
2022/08/26 02:07:44;;;;;;;13.95;9.70;;;19.40;99.90;;;;;;5114057;28;20229;-69
2022/08/26 02:10:11;;;;;;;13.13;8.85;;;19.40;99.90;;;;;;5114477;28;20182;-69
2022/08/26 02:12:37;;;;;;;11.05;9.13;;;19.40;99.90;;;;;;5114400;28;20664;-69
2022/08/26 02:15:07;;;;;;;13.07;9.45;;;19.40;99.90;;;;;;5112931;28;20542;-69
2022/08/26 02:17:37;;;;;;;11.98;8.40;;;19.40;99.90;;;;;;5114196;28;20199;-69
2022/08/26 02:20:05;;;;;;;12.52;8.50;;;19.40;99.90;;;;;;5114214;28;20640;-69
2022/08/26 02:22:31;;;;;;;14.27;8.70;;;19.40;99.90;;;;;;5113828;28;20200;-69
2022/08/26 02:25:14;;;;;;;13.38;8.95;;;19.40;99.90;;;;;;5112902;28;20180;-69
2022/08/26 02:27:40;;;;;;;13.70;9.00;;;19.40;99.90;;;;;;5114458;28;20168;-69
2022/08/26 02:30:16;;;;;;;10.50;8.45;;;19.30;99.90;;;;;;5114225;28;20157;-69
2022/08/26 02:32:42;;;;;;;12.63;8.50;;;19.40;99.90;;;;;;5113974;28;20565;-69
2022/08/26 02:35:10;;;;;;;12.32;8.65;;;19.40;99.90;;;;;;5113891;28;20264;-69
2022/08/26 02:37:36;;;;;;;11.55;9.10;;;19.40;99.90;;;;;;5113697;28;20188;-68
2022/08/26 02:40:03;;;;;;;13.05;9.57;;;19.40;99.90;;;;;;5112620;28;20183;-69
2022/08/26 02:42:29;;;;;;;13.40;9.90;;;19.30;99.90;;;;;;5114599;28;20565;-69
2022/08/26 02:44:54;;;;;;;11.00;8.77;;;19.30;99.90;;;;;;5114213;28;20173;-69
2022/08/26 02:47:20;;;;;;;13.45;9.00;;;19.30;99.90;;;;;;5114351;28;20173;-67
2022/08/26 02:49:46;;;;;;;11.45;8.52;;;19.20;99.90;;;;;;5117509;28;20645;-67
2022/08/26 02:52:12;;;;;;;12.45;8.85;;;19.20;99.90;;;;;;5117907;28;20240;-67
2022/08/26 02:54:38;;;;;;;12.52;9.35;;;19.20;99.90;;;;;;5117951;28;20728;-67
2022/08/26 02:57:04;;;;;;;11.30;9.10;;;19.10;99.90;;;;;;5118354;28;20192;-67
2022/08/26 02:59:30;;;;;;;12.10;9.65;;;19.00;99.90;;;;;;5118262;28;20641;-67
2022/08/26 03:01:56;;;;;;;12.45;9.13;;;19.00;99.90;;;;;;5117899;28;20336;-67
2022/08/26 03:04:23;;;;;;;14.68;9.43;;;19.00;99.90;;;;;;5117835;28;20708;-67
2022/08/26 03:06:49;;;;;;;14.25;9.43;;;18.90;99.90;;;;;;5116247;28;20184;-67
2022/08/26 03:09:17;;;;;;;15.18;9.80;;;18.80;99.90;;;;;;5116588;28;20318;-67
2022/08/26 03:11:45;;;;;;;13.68;10.18;;;18.80;99.90;;;;;;5117785;27;20177;-67
2022/08/26 03:14:12;;;;;;;13.63;10.18;;;18.80;99.90;;;;;;5117882;28;20279;-67
2022/08/26 03:16:38;;;;;;;12.43;9.23;;;18.80;99.90;;;;;;5117666;28;20169;-67
2022/08/26 03:19:07;;;;;;;14.43;9.68;;;18.70;99.90;;;;;;5117640;28;20192;-67
2022/08/26 03:21:33;;;;;;;11.52;9.13;;;18.70;99.90;;;;;;5116555;28;20204;-67
2022/08/26 03:23:59;;;;;;;13.52;9.43;;;18.70;99.90;;;;;;5117526;28;20603;-67
2022/08/26 03:26:26;;;;;;;10.93;9.32;;;18.70;99.90;;;;;;5116415;28;20177;-67
2022/08/26 03:31:37;;;;;;;9.93;8.88;;;18.70;99.90;;;;;;5117509;28;20210;-67
2022/08/26 03:34:03;;;;;;;13.73;9.25;;;18.70;99.90;;;;;;5117407;28;20203;-67
2022/08/26 03:36:29;;;;;;;13.25;9.68;;;18.70;99.90;;;;;;5117223;28;20606;-67
2022/08/26 03:38:55;;;;;;;12.93;9.23;;;18.70;99.90;;;;;;5117566;28;20196;-67
2022/08/26 03:41:21;;;;;;;12.40;8.68;;;18.70;99.90;;;;;;5117134;28;20279;-67
2022/08/26 03:43:49;;;;;;;13.40;9.48;;;18.70;99.90;;;;;;5115952;28;20264;-67
2022/08/26 03:46:16;;;;;;;12.02;9.65;;;18.60;99.90;;;;;;5117504;28;20168;-67
2022/08/26 03:48:42;;;;;;;15.50;10.07;;;18.60;99.90;;;;;;5117214;28;20771;-67
2022/08/26 03:51:17;;;;;;;11.57;9.13;;;18.60;99.90;;;;;;5117059;27;20263;-67
2022/08/26 03:53:44;;;;;;;15.80;9.10;;;18.60;99.90;;;;;;5117092;28;20202;-67
2022/08/26 03:56:09;;;;;;;12.13;9.50;;;18.50;99.90;;;;;;5117662;28;20617;-67
2022/08/26 03:58:36;;;;;;;16.52;9.40;;;18.40;99.90;;;;;;5116928;28;20179;-67
2022/08/26 04:01:02;;;;;;;13.48;10.50;;;18.30;99.90;;;;;;5116480;28;20530;-67
2022/08/26 04:06:12;;;;;;;13.82;10.35;;;18.20;99.90;;;;;;5117867;28;20281;-67
2022/08/26 04:08:38;;;;;;;14.00;9.30;;;18.10;99.90;;;;;;5117943;28;20570;-67
2022/08/26 04:11:05;;;;;;;13.80;9.98;;;18.00;99.90;;;;;;5117950;28;20240;-68
2022/08/26 04:13:31;;;;;;;15.52;10.63;;;18.00;99.90;;;;;;5116199;28;20200;-68
2022/08/26 04:15:57;;;;;;;11.95;9.07;;;18.00;99.90;;;;;;5115595;28;20574;-68
2022/08/26 04:18:22;;;;;;;15.38;10.70;;;18.00;99.90;;;;;;5116550;28;20180;-68
2022/08/26 04:20:49;;;;;;;14.82;10.90;;;17.90;99.90;;;;;;5116633;28;20270;-68
2022/08/26 04:23:15;;;;;;;15.52;10.38;;;17.90;99.90;;;;;;5115601;28;20265;-68
2022/08/26 04:25:42;;;;;;;15.52;9.93;;;17.90;99.90;;;;;;5115354;28;20209;-68
2022/08/26 04:28:09;;;;;;;15.05;9.73;;;17.90;99.90;;;;;;5117268;28;20282;-68
2022/08/26 04:30:38;;;;;;;14.65;9.95;;;18.00;99.90;;;;;;5115727;28;20198;-68
2022/08/26 04:33:04;;;;;;;16.73;10.82;;;17.90;99.90;;;;;;5116683;28;20271;-68
2022/08/26 04:35:31;;;;;;;15.70;10.40;;;17.90;99.90;;;;;;5116508;28;20200;-67
2022/08/26 04:37:57;;;;;;;17.33;11.25;;;18.00;99.90;;;;;;5116067;28;20211;-67
2022/08/26 04:40:25;;;;;;;17.92;11.30;;;17.90;99.90;;;;;;5116274;28;20173;-67
2022/08/26 04:42:51;;;;;;;17.42;11.18;;;17.90;99.90;;;;;;5116266;28;20260;-67
2022/08/26 04:45:17;;;;;;;18.63;11.55;;;17.90;99.90;;;;;;5115941;28;20625;-67
2022/08/26 04:47:42;;;;;;;15.77;11.35;;;17.90;99.90;;;;;;5116059;28;20168;-67
2022/08/26 04:50:08;;;;;;;15.02;10.80;;;17.90;99.90;;;;;;5114720;28;20179;-68
2022/08/26 04:52:35;;;;;;;16.05;11.18;;;17.80;99.90;;;;;;5115835;28;20633;-68
2022/08/26 04:55:01;;;;;;;15.52;11.88;;;17.90;99.90;;;;;;5116105;28;20172;-68
2022/08/26 04:57:26;;;;;;;17.23;11.77;;;17.90;99.90;;;;;;5116165;28;20185;-68
2022/08/26 04:59:52;;;;;;;18.23;12.77;;;17.90;99.90;;;;;;5114494;28;20271;-68
2022/08/26 05:02:18;;;;;;;18.33;12.48;;;17.90;99.90;;;;;;5115568;28;20200;-67
2022/08/26 05:04:44;;;;;;;15.63;11.35;;;18.00;99.90;;;;;;5114426;28;20176;-67
2022/08/26 05:07:10;;;;;;;19.77;13.40;;;18.00;99.90;;;;;;5115398;28;20186;-68
2022/08/26 05:09:39;;;;;;;19.63;13.65;;;18.00;99.90;;;;;;5114539;28;20637;-67
2022/08/26 05:12:05;;;;;;;21.73;14.70;;;18.00;99.90;;;;;;5115254;27;20172;-67
2022/08/26 05:14:31;;;;;;;23.25;14.80;;;18.00;99.90;;;;;;5115346;28;20192;-67
2022/08/26 05:16:56;;;;;;;25.85;16.58;;;18.00;99.90;;;;;;5115516;28;20534;-67
2022/08/26 05:19:23;;;;;;;23.30;17.63;;;18.00;99.90;;;;;;5115493;28;20258;-68
2022/08/26 05:21:49;;;;;;;27.33;20.23;;;18.10;99.90;;;;;;5115207;28;20195;-67
2022/08/26 05:24:16;;;;;;;26.15;19.75;;;18.10;99.90;;;;;;5115245;28;20188;-67
2022/08/26 05:26:43;;;;;;;29.65;20.58;;;18.10;99.90;;;;;;5113905;28;20204;-67
2022/08/26 05:29:09;;;;;;;27.67;20.65;;;18.20;99.90;;;;;;5115127;28;20176;-67
2022/08/26 05:31:35;;;;;;;38.17;25.77;;;18.30;99.90;;;;;;5115581;28;20168;-67
2022/08/26 05:34:02;;;;;;;35.88;26.58;;;18.30;99.90;;;;;;5115508;28;20224;-67
2022/08/26 05:36:30;;;;;;;35.00;27.08;;;18.40;99.90;;;;;;5114999;28;20705;-68
2022/08/26 05:38:56;;;;;;;45.38;31.75;;;18.50;99.90;;;;;;5113709;28;20176;-67
2022/08/26 05:41:27;;;;;;;52.70;33.10;;;18.60;99.90;;;;;;5114716;28;20673;-67
2022/08/26 05:43:58;;;;;;;56.63;39.35;;;18.70;99.90;;;;;;5115264;28;20536;-67
2022/08/26 05:46:25;;;;;;;47.38;36.13;;;18.70;99.90;;;;;;5114942;28;20161;-67
2022/08/26 05:48:52;;;;;;;54.53;39.80;;;18.80;99.90;;;;;;5114709;28;20260;-67
2022/08/26 05:51:18;;;;;;;57.15;40.85;;;18.90;99.90;;;;;;5114801;28;20153;-67
2022/08/26 05:53:44;;;;;;;78.65;51.65;;;19.00;99.90;;;;;;5114694;28;20199;-67
2022/08/26 05:56:11;;;;;;;77.40;51.28;;;19.10;99.90;;;;;;5115051;28;20168;-67
2022/08/26 05:58:39;;;;;;;108.82;70.45;;;19.10;99.90;;;;;;5115085;28;20171;-68
2022/08/26 06:01:14;;;;;;;107.25;72.47;;;19.20;99.90;;;;;;5113248;28;20577;-68
2022/08/26 06:03:44;;;;;;;118.60;76.78;;;19.20;99.90;;;;;;5114691;28;20199;-67
2022/08/26 06:06:25;;;;;;;119.55;81.97;;;19.20;99.90;;;;;;5112853;28;20172;-68
2022/08/26 06:08:52;;;;;;;116.88;76.05;;;19.30;99.90;;;;;;5114766;27;20283;-67
2022/08/26 06:11:24;;;;;;;107.72;74.03;;;19.40;99.90;;;;;;5112986;28;20180;-68
2022/08/26 06:13:50;;;;;;;111.88;76.28;;;19.40;99.90;;;;;;5114309;28;20588;-67
2022/08/26 06:16:18;;;;;;;111.10;76.65;;;19.40;99.90;;;;;;5114295;28;20237;-67
2022/08/26 06:18:46;;;;;;;112.95;75.50;;;19.50;99.90;;;;;;5112753;28;20663;-67
2022/08/26 06:21:18;;;;;;;107.72;75.88;;;19.50;99.90;;;;;;5114111;28;20184;-68
2022/08/26 06:26:34;;;;;;;118.22;77.55;;;19.60;99.90;;;;;;5114482;28;20570;-67
2022/08/26 06:29:01;;;;;;;129.50;82.93;;;19.70;99.90;;;;;;5113121;28;20172;-67
2022/08/26 06:31:28;;;;;;;123.72;81.00;;;19.60;99.90;;;;;;5114027;28;20204;-67
2022/08/26 06:33:55;;;;;;;126.25;79.82;;;19.70;99.90;;;;;;5114120;28;20203;-67
2022/08/26 06:36:26;;;;;;;132.35;78.53;;;19.70;99.90;;;;;;5112480;28;20177;-68
2022/08/26 06:38:54;;;;;;;123.95;78.43;;;19.70;99.90;;;;;;5114435;28;20161;-67
2022/08/26 06:41:21;;;;;;;131.95;82.97;;;19.80;99.90;;;;;;5114107;28;20329;-68
2022/08/26 06:43:48;;;;;;;134.98;81.43;;;19.80;99.90;;;;;;5113793;28;20653;-69
2022/08/26 06:46:16;;;;;;;138.90;84.15;;;19.80;99.90;;;;;;5113823;28;20207;-69
2022/08/26 06:48:42;;;;;;;127.05;78.13;;;19.90;99.90;;;;;;5113861;28;20179;-69
2022/08/26 06:51:23;;;;;;;137.50;80.75;;;19.90;99.90;;;;;;5112608;28;20547;-69
2022/08/26 06:53:52;;;;;;;127.63;75.15;;;20.00;99.90;;;;;;5113804;28;20197;-69
2022/08/26 06:56:22;;;;;;;125.05;75.57;;;20.00;99.90;;;;;;5113983;28;20204;-67
2022/08/26 06:58:48;;;;;;;129.60;78.05;;;20.10;99.90;;;;;;5113998;28;20175;-67
2022/08/26 07:01:24;;;;;;;122.82;74.97;;;20.10;99.90;;;;;;5112320;28;20200;-67
2022/08/26 07:03:52;;;;;;;125.30;77.40;;;20.10;99.90;;;;;;5113854;28;20195;-67
2022/08/26 07:06:19;;;;;;;116.47;72.13;;;20.20;99.90;;;;;;5113734;28;20191;-68
2022/08/26 07:08:46;;;;;;;118.63;74.28;;;20.20;99.90;;;;;;5112406;28;20656;-67
2022/08/26 07:11:12;;;;;;;119.32;74.18;;;20.30;99.90;;;;;;5112428;28;20648;-67
2022/08/26 07:13:37;;;;;;;118.63;73.65;;;20.30;99.90;;;;;;5112307;28;20210;-67
2022/08/26 07:16:05;;;;;;;119.70;76.70;;;20.30;99.90;;;;;;5112250;28;20184;-67
2022/08/26 07:18:33;;;;;;;115.70;71.05;;;20.40;99.90;;;;;;5113751;28;20539;-67
2022/08/26 07:21:01;;;;;;;119.38;73.68;;;20.40;99.90;;;;;;5113422;28;20220;-67
2022/08/26 07:23:26;;;;;;;113.32;70.22;;;20.40;99.90;;;;;;5113278;28;20657;-67
2022/08/26 07:25:52;;;;;;;108.90;67.38;;;20.40;99.90;;;;;;5112260;28;20184;-67
2022/08/26 07:28:18;;;;;;;112.72;70.22;;;20.50;99.90;;;;;;5113527;28;20186;-67
2022/08/26 07:30:44;;;;;;;119.57;70.78;;;20.50;99.90;;;;;;5112063;28;20237;-67
2022/08/26 07:33:10;;;;;;;109.55;67.60;;;20.50;99.90;;;;;;5112005;28;20196;-67
2022/08/26 07:35:37;;;;;;;113.22;70.38;;;20.60;99.90;;;;;;5119644;28;20179;-67
2022/08/26 07:38:03;;;;;;;110.35;66.88;;;20.70;99.90;;;;;;5104962;28;20177;-66
2022/08/26 07:40:29;;;;;;;105.03;67.85;;;20.70;99.90;;;;;;5101484;28;20259;-67
2022/08/26 07:42:56;;;;;;;110.20;69.13;;;20.70;99.90;;;;;;5098539;28;20185;-68
2022/08/26 07:45:24;;;;;;;108.68;67.35;;;20.70;99.90;;;;;;5098855;28;20173;-67
2022/08/26 07:47:50;;;;;;;107.55;66.97;;;20.70;99.90;;;;;;5099080;28;20222;-66
2022/08/26 07:50:16;;;;;;;104.18;66.68;;;20.80;99.90;;;;;;5101968;28;20193;-68
2022/08/26 07:52:42;;;;;;;110.93;67.22;;;20.90;99.90;;;;;;5097582;28;20240;-68
2022/08/26 07:55:08;;;;;;;101.15;63.90;;;20.90;99.90;;;;;;5098459;28;20172;-68
2022/08/26 07:57:34;;;;;;;107.72;65.88;;;20.90;99.90;;;;;;5098047;28;20178;-68
2022/08/26 08:00:01;;;;;;;105.97;64.90;;;21.00;99.90;;;;;;5099396;28;20595;-67
2022/08/26 08:02:29;;;;;;;102.03;65.63;;;20.90;99.90;;;;;;5100309;28;20201;-68
2022/08/26 08:04:56;;;;;;;98.75;63.63;;;20.90;99.90;;;;;;5098620;28;20227;-66
2022/08/26 08:07:23;;;;;;;99.95;62.30;;;21.00;99.90;;;;;;5101939;28;20195;-68
2022/08/26 08:09:50;;;;;;;99.03;60.47;;;21.00;99.90;;;;;;5096781;28;20169;-67
2022/08/26 08:12:17;;;;;;;94.10;61.90;;;21.10;99.90;;;;;;5094932;28;20177;-69
2022/08/26 08:14:45;;;;;;;103.03;62.55;;;21.10;99.90;;;;;;5094922;28;20201;-69
2022/08/26 08:17:13;;;;;;;95.53;62.08;;;21.20;99.90;;;;;;5096142;28;20173;-69
2022/08/26 08:19:39;;;;;;;87.75;59.15;;;21.20;99.90;;;;;;5094731;28;20193;-69
2022/08/26 08:22:05;;;;;;;90.32;59.38;;;21.20;99.90;;;;;;5094386;28;20196;-69
2022/08/26 08:24:32;;;;;;;88.72;57.85;;;21.30;99.90;;;;;;5095943;28;20250;-69
2022/08/26 08:26:59;;;;;;;90.90;58.00;;;21.30;99.90;;;;;;5094675;28;20173;-69
2022/08/26 08:29:28;;;;;;;93.13;58.22;;;21.40;99.90;;;;;;5096258;28;20218;-69
2022/08/26 08:31:55;;;;;;;84.72;58.42;;;21.40;99.90;;;;;;5096172;28;20658;-69
2022/08/26 08:34:21;;;;;;;93.05;59.45;;;21.50;99.90;;;;;;5095976;28;20207;-69
2022/08/26 08:36:49;;;;;;;91.72;58.47;;;21.50;99.90;;;;;;5096015;28;20657;-69
2022/08/26 08:39:15;;;;;;;81.88;55.00;;;21.50;99.90;;;;;;5094452;28;20184;-69
2022/08/26 08:42:03;;;;;;;84.00;54.72;;;21.60;99.90;;;;;;5096026;28;20185;-69
2022/08/26 08:44:29;;;;;;;79.03;54.58;;;21.70;99.90;;;;;;5096077;28;20192;-69
2022/08/26 08:47:03;;;;;;;78.57;52.80;;;21.80;99.90;;;;;;5095080;28;20173;-69
2022/08/26 08:49:31;;;;;;;76.53;52.22;;;21.90;99.90;;;;;;5094779;28;20701;-70
2022/08/26 08:52:29;;;;;;;80.97;54.42;;;21.90;99.90;;;;;;5095972;28;20230;-69
2022/08/26 08:54:56;;;;;;;78.93;53.03;;;21.90;99.90;;;;;;5095684;28;20181;-69
2022/08/26 08:57:30;;;;;;;84.55;55.30;;;22.00;99.90;;;;;;5095823;28;20169;-69
2022/08/26 09:00:08;;;;;;;80.18;55.78;;;22.10;99.90;;;;;;5094753;28;20172;-69
2022/08/26 09:02:58;;;;;;;84.55;58.25;;;22.00;99.90;;;;;;5096082;28;20315;-69
2022/08/26 09:05:28;;;;;;;85.80;56.70;;;21.80;99.90;;;;;;5096225;28;20183;-69
2022/08/26 09:07:58;;;;;;;80.32;57.85;;;21.90;99.90;;;;;;5094752;28;20330;-69
2022/08/26 09:10:38;;;;;;;89.20;57.60;;;21.90;99.90;;;;;;5098032;28;20169;-69
2022/08/26 09:13:16;;;;;;;77.28;53.70;;;21.90;99.90;;;;;;5096697;28;20187;-69
2022/08/26 09:16:05;;;;;;;75.38;52.00;;;22.00;99.90;;;;;;5095209;28;20169;-69
2022/08/26 09:18:43;;;;;;;73.70;49.97;;;22.00;99.90;;;;;;5095054;28;20199;-70
2022/08/26 09:21:11;;;;;;;64.07;46.65;;;22.10;99.90;;;;;;5095787;28;20609;-69
2022/08/26 09:23:40;;;;;;;73.57;53.05;;;22.20;99.90;;;;;;5094337;28;20346;-70
2022/08/26 09:26:19;;;;;;;79.22;53.47;;;22.40;99.90;;;;;;5095630;28;20165;-68
2022/08/26 09:29:01;;;;;;;73.28;52.40;;;22.40;99.90;;;;;;5095695;28;20202;-68
2022/08/26 09:31:29;;;;;;;80.18;53.72;;;22.30;99.90;;;;;;5095372;28;20165;-69
2022/08/26 09:34:24;;;;;;;76.75;54.78;;;22.30;99.90;;;;;;5093621;28;20204;-68
2022/08/26 09:36:54;;;;;;;78.13;53.97;;;22.20;99.90;;;;;;5094724;28;20181;-68
2022/08/26 09:39:23;;;;;;;75.10;51.95;;;22.20;99.90;;;;;;5095307;28;20177;-68
2022/08/26 09:42:11;;;;;;;74.90;51.80;;;22.30;99.90;;;;;;5094754;28;20664;-68
2022/08/26 09:44:56;;;;;;;73.05;51.35;;;22.30;99.90;;;;;;5095352;28;20193;-68
2022/08/26 09:47:35;;;;;;;72.75;49.92;;;22.30;99.90;;;;;;5095256;28;20149;-68
2022/08/26 09:50:28;;;;;;;69.60;50.45;;;22.40;99.90;;;;;;5095279;28;20180;-67
2022/08/26 09:53:13;;;;;;;73.45;49.60;;;22.50;99.90;;;;;;5094583;28;20275;-68
2022/08/26 09:55:44;;;;;;;73.65;51.20;;;22.60;99.90;;;;;;5094657;28;20153;-68
2022/08/26 09:58:30;;;;;;;82.43;54.40;;;22.60;99.90;;;;;;5092406;28;20252;-68
2022/08/26 10:01:00;;;;;;;68.72;50.40;;;22.50;99.90;;;;;;5094543;28;20185;-68
2022/08/26 10:03:29;;;;;;;73.78;51.40;;;22.50;99.90;;;;;;5094626;28;20224;-68
2022/08/26 10:06:05;;;;;;;70.97;50.42;;;22.50;99.90;;;;;;5094597;28;20192;-68
2022/08/26 10:08:41;;;;;;;66.32;49.45;;;22.60;99.90;;;;;;5094125;28;20184;-68
2022/08/26 10:11:44;;;;;;;73.57;47.65;;;22.60;99.90;;;;;;5094397;28;20163;-68
2022/08/26 10:14:26;;;;;;;62.20;48.33;;;22.70;99.90;;;;;;5063004;28;20236;-68
2022/08/26 10:16:55;;;;;;;64.18;47.55;;;22.70;99.90;;;;;;5094797;28;20169;-68
2022/08/26 10:19:27;;;;;;;53.72;42.90;;;22.80;99.90;;;;;;5093924;28;20189;-67
2022/08/26 10:21:55;;;;;;;60.63;44.17;;;22.80;99.90;;;;;;5093888;28;20219;-68
2022/08/26 10:24:46;;;;;;;62.72;43.75;;;22.90;99.90;;;;;;5092705;28;20204;-68
2022/08/26 10:27:30;;;;;;;56.55;40.95;;;23.00;99.90;;;;;;5092867;28;20180;-68
2022/08/26 10:30:06;;;;;;;60.55;43.85;;;23.20;99.90;;;;;;5094069;28;20176;-68
2022/08/26 10:32:38;;;;;;;56.55;42.63;;;23.20;99.90;;;;;;5076104;28;20641;-68
2022/08/26 10:35:08;;;;;;;50.38;40.03;;;23.20;99.90;;;;;;5093751;28;20177;-68
2022/08/26 10:37:38;;;;;;;53.20;41.75;;;23.30;99.90;;;;;;5093791;28;20264;-68
2022/08/26 10:40:13;;;;;;;53.33;37.38;;;23.30;99.90;;;;;;5093796;28;20169;-68
2022/08/26 10:43:03;;;;;;;48.10;38.00;;;23.30;99.90;;;;;;5093772;28;20280;-68
2022/08/26 10:45:45;;;;;;;51.03;39.60;;;23.30;99.90;;;;;;5092416;28;20180;-68
2022/08/26 10:48:44;;;;;;;54.25;40.28;;;23.20;99.90;;;;;;5094623;28;20161;-68
2022/08/26 10:51:14;;;;;;;49.28;39.90;;;23.10;99.90;;;;;;5089376;28;20208;-69
2022/08/26 10:54:17;;;;;;;51.75;39.03;;;23.10;99.90;;;;;;5092500;28;20746;-69
2022/08/26 10:56:47;;;;;;;57.47;41.13;;;23.10;99.90;;;;;;5083900;28;20278;-69
2022/08/26 10:59:18;;;;;;;57.28;41.85;;;23.20;99.90;;;;;;5092237;28;20173;-68
2022/08/26 11:02:14;;;;;;;51.42;38.28;;;23.10;99.90;;;;;;5098897;28;20265;-67
2022/08/26 11:04:54;;;;;;;55.85;39.13;;;23.20;99.90;;;;;;5071024;28;20669;-67
2022/08/26 11:07:35;;;;;;;47.72;34.60;;;23.30;99.90;;;;;;5097504;28;20185;-67
2022/08/26 11:10:07;;;;;;;48.15;34.65;;;23.30;99.90;;;;;;5098642;28;20520;-68
2022/08/26 11:12:36;;;;;;;37.97;29.55;;;23.30;99.90;;;;;;5101950;28;20184;-68
2022/08/26 11:15:10;;;;;;;43.85;30.15;;;23.30;99.90;;;;;;5099121;28;20650;-68
2022/08/26 11:17:45;;;;;;;45.50;33.55;;;23.30;99.90;;;;;;5101798;28;20188;-68
2022/08/26 11:20:35;;;;;;;41.22;30.60;;;23.10;99.90;;;;;;5097669;28;20208;-69
2022/08/26 11:23:13;;;;;;;36.25;29.58;;;23.10;99.90;;;;;;5096946;28;20196;-69
2022/08/26 11:26:03;;;;;;;37.80;30.33;;;23.20;99.90;;;;;;5097198;28;20230;-69
2022/08/26 11:28:44;;;;;;;44.15;32.58;;;23.10;99.90;;;;;;5097542;28;20515;-69
2022/08/26 11:31:10;;;;;;;42.50;30.40;;;23.10;99.90;;;;;;5095858;28;20169;-69
2022/08/26 11:33:47;;;;;;;39.35;30.00;;;23.10;99.90;;;;;;5096921;28;20200;-69
2022/08/26 11:36:55;;;;;;;34.53;27.65;;;23.10;99.90;;;;;;5095625;28;20176;-69
2022/08/26 11:39:29;;;;;;;40.20;32.58;;;23.30;99.90;;;;;;5018173;28;20324;-69
2022/08/26 11:42:15;;;;;;;47.60;33.80;;;23.40;99.90;;;;;;5090190;28;20231;-69
2022/08/26 11:44:42;;;;;;;39.58;30.08;;;23.40;99.90;;;;;;5096482;28;20660;-69
2022/08/26 11:47:11;;;;;;;38.17;28.58;;;23.20;99.90;;;;;;5096776;28;20543;-69
2022/08/26 11:49:37;;;;;;;40.03;31.17;;;23.30;99.90;;;;;;5096852;28;20244;-69
2022/08/26 11:52:21;;;;;;;39.47;31.13;;;23.30;99.90;;;;;;5096978;28;20227;-69
2022/08/26 11:55:10;;;;;;;40.53;31.90;;;23.30;99.90;;;;;;5096795;28;20221;-69
2022/08/26 11:57:43;;;;;;;36.42;28.88;;;23.10;99.90;;;;;;5097181;28;20196;-69
2022/08/26 12:00:16;;;;;;;37.50;29.63;;;23.10;99.90;;;;;;5095361;28;20192;-69
2022/08/26 12:02:42;;;;;;;38.58;30.65;;;23.10;99.90;;;;;;5095156;28;20662;-69
2022/08/26 12:05:08;;;;;;;38.67;31.63;;;23.10;99.90;;;;;;5096520;28;20180;-69
2022/08/26 12:07:34;;;;;;;42.47;33.90;;;23.20;99.90;;;;;;5096153;28;20212;-67
2022/08/26 12:10:03;;;;;;;42.55;32.53;;;23.30;99.90;;;;;;5095097;28;20212;-67
2022/08/26 12:12:31;;;;;;;33.80;29.88;;;23.40;99.90;;;;;;5094938;28;20177;-69
2022/08/26 12:15:19;;;;;;;37.28;27.90;;;23.50;99.90;;;;;;5094993;28;20184;-69
2022/08/26 12:17:48;;;;;;;33.03;27.60;;;23.60;99.90;;;;;;5095475;28;20199;-69
2022/08/26 12:20:47;;;;;;;30.80;23.92;;;23.50;99.90;;;;;;5096103;28;20189;-69
2022/08/26 12:23:25;;;;;;;31.50;23.73;;;23.60;99.90;;;;;;5095675;28;20197;-69
2022/08/26 12:26:01;;;;;;;24.20;20.35;;;23.60;99.90;;;;;;5096287;28;20149;-69
2022/08/26 12:28:29;;;;;;;30.92;24.13;;;23.60;99.90;;;;;;5096016;28;20192;-69
2022/08/26 12:30:59;;;;;;;31.08;24.35;;;23.60;99.90;;;;;;5096014;28;20163;-69
2022/08/26 12:33:26;;;;;;;32.67;22.73;;;23.50;99.90;;;;;;5096121;28;20280;-69
2022/08/26 12:35:53;;;;;;;27.85;22.73;;;23.40;99.90;;;;;;5096190;28;20170;-69
2022/08/26 12:38:19;;;;;;;29.48;23.88;;;23.30;99.90;;;;;;5095681;28;20189;-69
2022/08/26 12:40:49;;;;;;;32.03;23.20;;;23.30;99.90;;;;;;5094552;28;20169;-69
2022/08/26 12:43:39;;;;;;;28.38;21.88;;;23.30;99.90;;;;;;5096144;28;20197;-69
2022/08/26 12:46:07;;;;;;;25.33;20.73;;;23.30;99.90;;;;;;5094499;28;20249;-69
2022/08/26 12:48:37;;;;;;;25.55;19.77;;;23.40;99.90;;;;;;5094439;28;20189;-69
2022/08/26 12:51:07;;;;;;;29.65;21.67;;;23.40;99.90;;;;;;5095689;28;20173;-69
2022/08/26 12:53:41;;;;;;;28.02;20.80;;;23.40;99.90;;;;;;5095478;28;20208;-69